Sprague, Nebraska
Current Conditions -  °F | °C
As of 1:07 AM on Friday 19 Dec 2014 (Local Time) from KLNK Reporting Station
Haze Haze  
Wind Chill: 26°   Ceiling: 900
Heat Index: 31°   Visibility: 6mi
Dew Point: 29°   Wind: 5mph
Humidity: 92%   Direction: 170°S
Pressure: 30.24"   Gusts: NA
Location:  40.63°N, 96.74°W
Report Text: KLNK 190707Z AUTO 17004KT 6SM BR OVC009 M01/M02 A3024 RMK AO2 T10061017
Loading
Personal Weather Stations






























Interactive Weather Map New forecast layout! Learn more

10-Day Weather Forecast

Advertisements
Track Severe Weather on mobile